MVA weather

Reykjahlíð Airport
Myvatn, Northeastern Region, Iceland

Public forecast

Using degrees Celsius for public forecast. Weather courtesy of forecast.io.

Closest aviation weather report (METAR) to Reykjahlíð Airport

Report is more than 6 hours old.

Closest report is Húsavík Airport, 21.8 nm (40.3 km) NW. Retrieved 2020/03/16 08:19 UTC (4 months ago):

BIHU 160819Z 09007G22KT 5000 SN DRSN SCT015 OVC030 00/M03 Q0974 R02/490695

Closest aviation forecast (TAF) to Reykjahlíð Airport

Closest forecast is Akureyri Airport, 28.6 nm (52.9 km) W. Retrieved 2020/07/13 06:36 UTC (1 hour ago):

TAF BIAR 130434Z 1306/1406 35008KT 9999 SCT017 BKN025 TX14/1315Z TN08/1403Z TEMPO 1306/1311 4000 RADZ BR BKN007 BECMG 1311/1313 BKN040 PROB40 TEMPO 1313/1319 SHRA BKN025CB